Time;durP1;ratioP1;P1;durP2;ratioP2;P2;SDS_P1;SDS_P2;PMS_P1;PMS_P2;Temp;Humidity;BMP_temperature;BMP_pressure;BME280_temperature;BME280_humidity;BME280_pressure;Samples;Min_cycle;Max_cycle;Signal;HPM_P1;HPM_P2
2022/08/23 00:01:41;;;;;;;12.47;11.37;;;;;;;24.63;53.15;94534.13;6085494;28;103088;-54
2022/08/23 00:04:45;;;;;;;13.33;12.03;;;;;;;24.63;53.36;94544.06;6083898;28;104569;-54
2022/08/23 00:08:08;;;;;;;12.60;11.30;;;;;;;24.64;53.45;94537.59;6090294;28;103029;-54
2022/08/23 00:25:00;;;;;;;16.70;15.10;;;;;;;24.41;54.90;94540.72;6257058;22;105208;-54
2022/08/23 00:28:08;;;;;;;15.17;13.77;;;;;;;24.44;54.90;94536.59;6226339;28;103410;-54
2022/08/23 00:31:17;;;;;;;15.97;14.57;;;;;;;24.49;54.45;94533.69;6222708;28;103694;-53
2022/08/23 00:34:27;;;;;;;13.67;12.43;;;;;;;24.44;55.06;94532.00;6212704;28;102796;-54
2022/08/23 00:37:35;;;;;;;14.47;13.17;;;;;;;24.40;55.44;94536.47;6215806;28;107286;-54
2022/08/23 01:46:06;;;;;;;13.77;12.33;;;;;;;23.88;57.08;94542.34;6208694;22;104380;-58
2022/08/23 01:49:13;;;;;;;14.60;13.30;;;;;;;23.96;56.70;94547.91;6175929;28;106449;-57
2022/08/23 01:52:22;;;;;;;15.33;13.90;;;;;;;24.01;56.29;94551.19;6174270;28;105170;-56
2022/08/23 01:55:30;;;;;;;15.77;14.23;;;;;;;23.95;56.83;94546.34;6179383;28;103239;-57
2022/08/23 01:58:38;;;;;;;13.90;12.73;;;;;;;23.89;56.95;94551.91;6181587;28;104048;-58
2022/08/23 02:01:52;;;;;;;13.87;12.60;;;;;;;24.23;55.67;94546.59;6176895;28;102974;-58
2022/08/23 02:05:03;;;;;;;12.53;11.43;;;;;;;24.45;54.75;94543.50;6175690;28;104163;-58
2022/08/23 03:11:44;;;;;;;7.00;6.20;;;;;;;23.79;52.69;94528.25;6113380;28;103395;-56
2022/08/23 03:14:50;;;;;;;5.80;5.40;;;;;;;23.76;52.65;94520.13;6133482;28;103417;-59
2022/08/23 03:17:55;;;;;;;6.07;5.47;;;;;;;23.66;52.68;94523.97;6141395;28;103339;-59
2022/08/23 03:20:58;;;;;;;5.67;5.27;;;;;;;23.87;52.33;94524.75;6142490;28;103204;-59
2022/08/23 03:24:02;;;;;;;6.57;5.67;;;;;;;23.98;51.84;94527.75;6139637;28;102798;-59
2022/08/23 03:27:13;;;;;;;5.80;5.40;;;;;;;23.98;51.87;94527.75;6132102;28;103469;-58
2022/08/23 03:30:16;;;;;;;6.10;5.60;;;;;;;23.94;52.15;94528.75;6137264;28;104271;-58
2022/08/23 03:33:22;;;;;;;10.20;5.93;;;;;;;24.24;51.67;94529.44;6142128;28;102839;-56
2022/08/23 03:36:25;;;;;;;7.10;6.60;;;;;;;24.39;51.58;94537.59;6136824;28;102951;-56
2022/08/23 03:39:30;;;;;;;13.77;12.37;;;;;;;24.38;51.60;94532.56;6107688;28;103510;-57
2022/08/23 03:42:35;;;;;;;12.20;11.03;;;;;;;24.49;51.78;94542.47;6136173;28;104319;-59
2022/08/23 03:45:38;;;;;;;10.80;9.87;;;;;;;24.39;52.41;94553.63;6140358;28;102842;-58
2022/08/23 03:48:42;;;;;;;10.50;9.40;;;;;;;24.40;52.74;94563.22;6138912;28;103557;-58
2022/08/23 03:51:47;;;;;;;11.73;10.70;;;;;;;24.44;52.89;94557.97;6115802;28;104072;-59
2022/08/23 03:54:50;;;;;;;11.20;9.60;;;;;;;24.38;53.53;94565.44;6136721;28;103006;-56
2022/08/23 03:57:54;;;;;;;10.53;9.53;;;;;;;24.23;54.02;94563.41;6123799;28;103663;-59
2022/08/23 04:00:58;;;;;;;10.57;9.60;;;;;;;24.27;54.31;94575.00;6142472;28;103874;-58
2022/08/23 04:04:01;;;;;;;9.77;8.87;;;;;;;24.30;54.03;94579.69;6128924;28;103665;-58
2022/08/23 04:07:04;;;;;;;9.20;8.50;;;;;;;24.41;53.97;94585.41;6140030;28;104163;-59
2022/08/23 04:10:12;;;;;;;9.97;9.07;;;;;;;24.13;54.44;94590.53;6139511;28;103216;-59
2022/08/23 04:13:17;;;;;;;9.00;8.13;;;;;;;24.14;54.31;94584.88;6133120;28;103152;-59
2022/08/23 04:16:20;;;;;;;12.73;11.63;;;;;;;24.25;54.17;94587.91;6132226;28;103298;-60
2022/08/23 04:19:23;;;;;;;9.30;8.60;;;;;;;24.24;54.06;94583.69;6129046;28;103475;-58
2022/08/23 04:22:26;;;;;;;8.90;8.03;;;;;;;24.29;54.32;94583.47;6138354;28;104170;-62
2022/08/23 04:25:30;;;;;;;10.80;7.47;;;;;;;24.41;54.35;94583.50;6129116;28;103170;-59
2022/08/23 04:28:39;;;;;;;15.23;8.70;;;;;;;24.53;53.47;94584.63;6138530;28;104072;-57
2022/08/23 04:31:42;;;;;;;7.17;6.57;;;;;;;24.53;53.34;94571.25;6140610;28;103143;-58
2022/08/23 04:34:50;;;;;;;7.40;6.70;;;;;;;24.58;53.33;94568.38;6140212;28;103967;-57
2022/08/23 04:37:54;;;;;;;10.03;7.37;;;;;;;24.58;53.24;94568.38;6130260;28;103124;-58
2022/08/23 04:44:20;;;;;;;7.20;6.53;;;;;;;24.61;53.28;94586.44;6140696;28;102859;-57
2022/08/23 04:47:23;;;;;;;8.00;7.20;;;;;;;24.69;53.25;94590.91;6135010;28;103773;-63
2022/08/23 04:50:26;;;;;;;8.10;7.40;;;;;;;24.66;53.31;94599.56;6132940;28;103048;-58
2022/08/23 04:53:31;;;;;;;7.57;6.97;;;;;;;24.68;53.02;94592.81;6138389;28;103211;-57
2022/08/23 04:56:35;;;;;;;6.83;6.23;;;;;;;24.75;52.82;94602.97;6137476;28;103067;-58
2022/08/23 04:59:40;;;;;;;6.30;5.80;;;;;;;24.74;52.79;94612.13;6129043;28;103315;-58
2022/08/23 05:02:45;;;;;;;6.13;5.67;;;;;;;24.77;52.89;94619.47;6138603;28;103241;-59
2022/08/23 05:05:48;;;;;;;6.47;5.97;;;;;;;24.79;52.79;94622.59;6140090;28;103215;-58
2022/08/23 05:08:51;;;;;;;7.20;6.50;;;;;;;24.77;52.96;94619.47;6139605;28;104188;-57
2022/08/23 05:11:54;;;;;;;6.83;6.10;;;;;;;24.74;52.86;94620.16;6129520;28;103720;-59
2022/08/23 05:14:59;;;;;;;6.17;5.63;;;;;;;24.72;52.45;94633.88;6139876;28;103692;-59
2022/08/23 05:18:02;;;;;;;7.07;5.60;;;;;;;24.71;52.03;94631.53;6138995;28;103171;-57
2022/08/23 05:21:05;;;;;;;8.43;6.47;;;;;;;24.74;52.23;94633.53;6140238;28;103193;-66
2022/08/23 05:24:09;;;;;;;8.20;5.90;;;;;;;24.84;52.59;94641.09;6130044;28;103763;-56
2022/08/23 05:27:15;;;;;;;6.07;5.60;;;;;;;24.90;51.91;94639.00;6139517;28;102979;-57
2022/08/23 05:30:20;;;;;;;6.13;5.20;;;;;;;24.92;51.94;94631.44;6139804;28;103090;-58
2022/08/23 05:33:23;;;;;;;8.13;7.33;;;;;;;24.95;52.38;94634.22;6130092;28;105843;-58
2022/08/23 05:36:26;;;;;;;7.20;6.50;;;;;;;24.94;52.34;94635.31;6139730;28;104250;-61
2022/08/23 05:39:30;;;;;;;6.30;5.73;;;;;;;24.92;51.62;94628.75;6139161;28;103197;-57
2022/08/23 05:42:38;;;;;;;6.57;6.03;;;;;;;24.87;51.32;94616.38;6140132;28;103171;-56
2022/08/23 05:45:43;;;;;;;5.70;5.30;;;;;;;24.84;51.00;94625.03;6130389;28;103902;-59
2022/08/23 05:48:49;;;;;;;6.10;5.50;;;;;;;24.89;50.98;94637.44;6139224;28;103964;-58
2022/08/23 05:51:53;;;;;;;6.10;5.50;;;;;;;24.88;50.58;94636.69;6139788;28;103914;-57
2022/08/23 05:54:56;;;;;;;6.63;6.00;;;;;;;24.91;50.82;94646.72;6138903;28;103199;-61
2022/08/23 05:57:59;;;;;;;5.90;5.50;;;;;;;24.93;50.64;94647.16;6130214;28;102855;-58
2022/08/23 06:01:04;;;;;;;6.33;5.73;;;;;;;25.00;50.36;94641.22;6139068;28;103080;-59
2022/08/23 06:04:11;;;;;;;6.70;6.20;;;;;;;25.01;50.23;94640.13;6139287;28;104426;-58
2022/08/23 06:07:15;;;;;;;7.20;6.50;;;;;;;25.01;50.36;94643.56;6134032;28;103211;-56
2022/08/23 06:10:20;;;;;;;7.57;6.70;;;;;;;25.05;50.43;94638.34;6134988;28;103456;-59
2022/08/23 06:13:23;;;;;;;7.80;6.20;;;;;;;25.02;50.16;94649.72;6139422;28;104210;-58
2022/08/23 06:16:31;;;;;;;7.23;6.63;;;;;;;25.11;50.34;94658.44;6138490;28;104460;-57
2022/08/23 06:19:34;;;;;;;7.40;6.67;;;;;;;25.18;49.98;94663.22;6128716;28;103925;-57
2022/08/23 06:22:37;;;;;;;6.40;5.80;;;;;;;25.19;49.86;94667.47;6143618;28;103283;-59
2022/08/23 06:25:40;;;;;;;6.83;6.13;;;;;;;25.16;50.21;94666.22;6143180;28;104073;-58
2022/08/23 06:28:45;;;;;;;6.67;6.10;;;;;;;25.26;49.79;94665.03;6143369;28;104258;-58
2022/08/23 06:31:54;;;;;;;6.30;5.80;;;;;;;25.24;49.28;94662.69;6133080;28;104250;-59
2022/08/23 06:34:57;;;;;;;6.83;5.30;;;;;;;25.28;49.64;94668.91;6142971;28;103228;-59
2022/08/23 06:38:20;;;;;;;5.97;5.37;;;;;;;25.44;49.54;94679.78;6143344;28;105602;-59
2022/08/23 06:41:23;;;;;;;5.63;5.20;;;;;;;25.52;50.19;94680.75;6135869;28;104104;-55
2022/08/23 06:44:27;;;;;;;5.50;5.10;;;;;;;25.56;49.24;94679.78;6141282;28;104139;-59
2022/08/23 06:47:32;;;;;;;5.60;5.10;;;;;;;25.49;49.19;94678.75;6142460;28;102971;-58
2022/08/23 06:50:35;;;;;;;5.70;5.23;;;;;;;25.43;48.88;94686.25;6142556;28;103149;-59
2022/08/23 06:53:38;;;;;;;5.57;4.77;;;;;;;25.55;49.69;94688.94;6131900;28;103074;-60
2022/08/23 06:56:43;;;;;;;5.53;5.07;;;;;;;25.69;51.34;94683.19;6142807;28;103133;-59
2022/08/23 06:59:46;;;;;;;5.07;4.67;;;;;;;25.78;50.06;94691.13;6142280;28;104061;-62
2022/08/23 07:02:50;;;;;;;6.27;5.67;;;;;;;25.76;49.23;94696.06;6142314;28;104508;-59
2022/08/23 07:05:53;;;;;;;6.27;5.77;;;;;;;25.76;48.91;94696.06;6133150;28;105798;-59
2022/08/23 07:08:58;;;;;;;6.23;5.73;;;;;;;25.74;48.43;94691.03;6142311;28;104084;-60
2022/08/23 07:12:02;;;;;;;7.60;6.43;;;;;;;25.76;48.53;94690.69;6142265;28;103262;-60
2022/08/23 07:15:06;;;;;;;6.80;6.20;;;;;;;25.86;48.87;94690.22;6136601;28;103565;-58
2022/08/23 07:18:12;;;;;;;7.50;6.80;;;;;;;25.90;48.27;94683.84;6136414;28;103192;-59
2022/08/23 07:21:16;;;;;;;6.80;6.13;;;;;;;25.88;47.94;94685.31;6141670;28;103122;-60
2022/08/23 07:24:19;;;;;;;8.07;7.47;;;;;;;25.78;48.18;94681.19;6140903;28;103210;-60
2022/08/23 07:27:22;;;;;;;8.63;7.83;;;;;;;25.72;48.56;94685.22;6130898;28;104280;-60
2022/08/23 07:30:26;;;;;;;8.57;7.87;;;;;;;25.76;48.27;94685.31;6140695;28;104312;-59
2022/08/23 07:33:30;;;;;;;8.60;7.90;;;;;;;25.71;48.71;94693.56;6141271;28;104197;-59
2022/08/23 07:36:36;;;;;;;9.97;8.83;;;;;;;25.62;48.91;94691.81;6141600;28;103044;-60
2022/08/23 07:39:39;;;;;;;9.20;8.43;;;;;;;25.59;48.41;94687.13;6130219;28;103371;-59
2022/08/23 07:42:42;;;;;;;9.63;8.73;;;;;;;25.58;48.81;94688.25;6140978;28;103094;-59
2022/08/23 07:45:48;;;;;;;8.90;8.10;;;;;;;25.57;49.01;94683.22;6140679;28;103051;-54
2022/08/23 07:48:53;;;;;;;9.00;8.23;;;;;;;25.59;48.60;94689.03;6138869;28;104255;-55
2022/08/23 07:51:58;;;;;;;10.20;8.10;;;;;;;25.59;48.66;94691.72;6135636;28;103221;-55
2022/08/23 07:55:01;;;;;;;8.73;8.13;;;;;;;25.54;49.00;94700.78;6140897;28;104222;-55
2022/08/23 07:58:04;;;;;;;9.27;8.57;;;;;;;25.49;48.64;94694.84;6140908;28;104140;-54
2022/08/23 08:01:14;;;;;;;9.50;8.70;;;;;;;25.49;49.09;94708.22;6130445;28;103583;-65
2022/08/23 08:04:19;;;;;;;9.00;8.30;;;;;;;25.47;49.38;94703.22;6140916;28;102838;-55
2022/08/23 08:07:22;;;;;;;9.40;8.50;;;;;;;25.46;48.95;94706.22;6140683;28;104361;-54
2022/08/23 08:10:26;;;;;;;8.47;7.77;;;;;;;25.47;49.49;94713.94;6140602;28;103138;-55
2022/08/23 08:13:30;;;;;;;9.17;8.33;;;;;;;25.48;49.58;94717.38;6131354;28;104224;-55
2022/08/23 08:16:36;;;;;;;9.47;7.97;;;;;;;25.50;49.14;94713.25;6140325;28;103345;-54
2022/08/23 08:19:41;;;;;;;10.50;9.50;;;;;;;25.48;48.83;94720.06;6140994;28;103309;-55
2022/08/23 08:22:44;;;;;;;9.33;8.63;;;;;;;25.43;49.59;94715.72;6140213;28;103820;-57
2022/08/23 08:26:00;;;;;;;8.97;8.27;;;;;;;25.41;48.93;94717.97;6131693;28;103045;-55
2022/08/23 08:29:04;;;;;;;9.03;8.30;;;;;;;25.43;48.98;94715.72;6140116;28;103010;-54
2022/08/23 08:32:07;;;;;;;9.50;8.60;;;;;;;25.47;49.70;94718.50;6140073;28;104059;-55
2022/08/23 08:35:17;;;;;;;9.23;8.53;;;;;;;25.46;49.66;94717.72;6130540;28;104980;-55
2022/08/23 08:38:21;;;;;;;9.70;8.87;;;;;;;25.49;49.35;94719.72;6139772;28;102989;-55
2022/08/23 08:41:43;;;;;;;9.47;8.67;;;;;;;25.56;49.22;94719.97;6140036;28;103243;-55
2022/08/23 08:44:51;;;;;;;8.97;8.27;;;;;;;25.57;49.52;94715.38;6139422;28;104107;-56
2022/08/23 08:48:01;;;;;;;10.10;9.20;;;;;;;25.58;49.20;94711.59;6129128;28;103415;-54
2022/08/23 08:51:18;;;;;;;10.90;8.97;;;;;;;25.53;49.30;94712.56;6140534;28;103013;-54
2022/08/23 08:54:26;;;;;;;10.93;9.77;;;;;;;25.52;49.22;94711.00;6139975;28;104068;-55
2022/08/23 08:57:36;;;;;;;10.90;10.10;;;;;;;25.52;48.92;94708.34;6134986;28;103567;-55
2022/08/23 09:00:40;;;;;;;10.67;9.77;;;;;;;25.53;48.86;94699.19;6136688;28;105099;-54
2022/08/23 09:03:43;;;;;;;11.33;10.30;;;;;;;25.52;48.77;94692.25;6140044;28;104148;-55
2022/08/23 09:06:58;;;;;;;11.70;10.70;;;;;;;25.52;48.80;94686.91;6139337;28;103230;-67
2022/08/23 09:10:26;;;;;;;11.73;10.47;;;;;;;25.55;49.08;94678.22;6129833;28;103249;-56
2022/08/23 09:14:02;;;;;;;11.37;10.27;;;;;;;25.58;48.56;94682.91;6139199;28;103147;-55
2022/08/23 09:17:15;;;;;;;12.20;11.30;;;;;;;25.57;48.86;94681.34;6139525;28;103196;-55
2022/08/23 09:20:21;;;;;;;10.77;9.97;;;;;;;25.67;48.39;94688.13;6134149;28;102717;-57
2022/08/23 09:23:31;;;;;;;10.57;9.77;;;;;;;25.75;48.62;94683.78;6137354;28;103258;-54
2022/08/23 09:26:34;;;;;;;10.53;9.73;;;;;;;25.80;48.47;94683.53;6139570;28;103128;-55
2022/08/23 09:29:41;;;;;;;11.70;10.80;;;;;;;25.88;48.48;94688.00;6138993;28;103435;-54
2022/08/23 09:32:48;;;;;;;10.80;9.90;;;;;;;25.94;48.54;94684.72;6129024;28;103012;-61
2022/08/23 09:36:15;;;;;;;11.23;10.43;;;;;;;25.99;48.54;94683.69;6139327;28;105206;-55
2022/08/23 09:39:29;;;;;;;11.37;10.33;;;;;;;26.00;48.58;94685.28;6139013;28;103216;-55
2022/08/23 09:42:36;;;;;;;12.53;11.47;;;;;;;25.92;48.60;94683.50;6134322;28;103063;-57
2022/08/23 09:45:42;;;;;;;11.53;10.73;;;;;;;25.92;48.79;94680.81;6133001;28;103976;-69
2022/08/23 09:48:45;;;;;;;11.10;10.20;;;;;;;26.00;48.68;94685.28;6138893;28;104259;-54
2022/08/23 09:51:50;;;;;;;12.67;11.50;;;;;;;26.12;48.88;94681.81;6138481;28;104164;-54
2022/08/23 09:55:01;;;;;;;11.60;10.70;;;;;;;26.21;48.87;94687.78;6129945;28;104945;-54
2022/08/23 09:58:16;;;;;;;11.70;10.70;;;;;;;26.23;48.68;94686.34;6142894;28;102988;-53
2022/08/23 10:01:22;;;;;;;11.27;10.27;;;;;;;26.23;48.31;94688.25;6142716;28;103271;-57
2022/08/23 10:04:42;;;;;;;11.20;10.30;;;;;;;26.23;48.19;94685.56;6143078;28;103946;-53
2022/08/23 10:07:54;;;;;;;11.20;10.30;;;;;;;26.21;48.51;94688.59;6133036;28;104192;-55
2022/08/23 10:11:06;;;;;;;12.70;11.70;;;;;;;26.19;48.75;94679.31;6142649;28;102890;-55
2022/08/23 10:14:11;;;;;;;11.60;10.60;;;;;;;26.19;48.67;94679.31;6142174;28;103296;-63
2022/08/23 10:17:26;;;;;;;11.40;10.60;;;;;;;26.18;48.48;94681.22;6133474;28;103407;-56
2022/08/23 10:20:37;;;;;;;11.47;10.57;;;;;;;26.17;48.62;94676.97;6142224;28;103392;-55
2022/08/23 10:23:50;;;;;;;11.23;10.43;;;;;;;26.17;48.75;94676.19;6142508;28;103168;-54
2022/08/23 10:30:41;;;;;;;12.03;11.03;;;;;;;26.22;48.28;94682.13;6133267;28;104139;-71
2022/08/23 10:33:53;;;;;;;12.53;11.43;;;;;;;26.24;48.18;94666.47;6141926;28;103943;-54
2022/08/23 10:37:11;;;;;;;10.93;10.03;;;;;;;26.25;48.47;94667.22;6142470;28;104752;-54
2022/08/23 10:40:19;;;;;;;11.83;10.93;;;;;;;26.27;48.53;94659.63;6132276;28;104177;-55
2022/08/23 10:43:37;;;;;;;10.60;9.90;;;;;;;26.27;48.70;94657.72;6141473;28;102942;-55
2022/08/23 10:46:53;;;;;;;11.40;10.60;;;;;;;26.28;48.51;94661.97;6142121;28;103140;-54
2022/08/23 10:50:00;;;;;;;11.33;10.53;;;;;;;26.26;48.63;94658.84;6142058;28;103526;-55
2022/08/23 10:53:10;;;;;;;11.77;10.77;;;;;;;26.26;48.08;94653.47;6131944;28;103111;-59
2022/08/23 10:56:18;;;;;;;12.10;11.00;;;;;;;26.29;48.06;94646.66;6141936;28;104251;-55
2022/08/23 10:59:24;;;;;;;11.20;10.40;;;;;;;26.31;48.17;94662.41;6141352;28;104238;-54
2022/08/23 11:02:36;;;;;;;11.57;10.63;;;;;;;26.30;48.19;94666.19;6136941;28;104481;-56
2022/08/23 11:05:39;;;;;;;11.67;10.57;;;;;;;26.30;47.88;94663.53;6140139;28;103411;-54
2022/08/23 11:08:45;;;;;;;11.00;10.20;;;;;;;26.31;48.06;94665.06;6141684;28;103342;-54
2022/08/23 11:12:05;;;;;;;11.37;10.57;;;;;;;26.29;47.87;94665.44;6141685;28;102830;-54
2022/08/23 11:15:28;;;;;;;10.73;9.93;;;;;;;26.27;48.13;94663.09;6130366;28;104080;-55
2022/08/23 11:18:39;;;;;;;10.70;9.80;;;;;;;26.28;47.84;94655.81;6141736;28;103999;-60
2022/08/23 11:21:51;;;;;;;9.70;9.00;;;;;;;26.27;47.99;94651.56;6141223;28;104026;-54
2022/08/23 11:25:01;;;;;;;9.37;8.67;;;;;;;26.25;48.13;94646.56;6136789;28;103116;-53
2022/08/23 11:28:39;;;;;;;11.23;10.30;;;;;;;26.27;48.12;94649.66;6135853;28;103096;-54
2022/08/23 11:31:50;;;;;;;9.73;9.03;;;;;;;26.25;47.91;94646.56;6141331;28;103059;-55
2022/08/23 11:35:07;;;;;;;9.90;9.10;;;;;;;26.25;47.55;94646.56;6140745;28;103627;-54
2022/08/23 11:38:11;;;;;;;10.13;9.40;;;;;;;26.26;47.55;94644.66;6130690;28;104027;-55
2022/08/23 11:41:24;;;;;;;9.70;9.00;;;;;;;26.26;47.77;94644.66;6140897;28;103068;-55
2022/08/23 11:44:35;;;;;;;10.73;9.93;;;;;;;26.24;48.11;94645.00;6140641;28;103144;-54
2022/08/23 11:47:43;;;;;;;10.80;9.87;;;;;;;26.25;47.54;94638.50;6136623;28;103771;-55
2022/08/23 11:51:13;;;;;;;10.03;9.30;;;;;;;26.24;48.03;94636.94;6135639;28;103969;-54
2022/08/23 11:54:30;;;;;;;10.50;9.70;;;;;;;26.30;47.95;94634.78;6134917;28;103268;-56
2022/08/23 11:57:51;;;;;;;10.80;9.90;;;;;;;26.37;48.24;94637.66;6140424;28;102988;-52
2022/08/23 12:01:06;;;;;;;8.67;7.97;;;;;;;26.36;47.57;94643.38;6130523;28;105317;-53
2022/08/23 12:04:26;;;;;;;9.03;8.33;;;;;;;26.26;48.13;94639.28;6140979;28;104108;-53
2022/08/23 12:07:45;;;;;;;9.33;8.50;;;;;;;26.25;48.68;94640.41;6141095;28;104468;-53
2022/08/23 12:11:07;;;;;;;9.43;8.60;;;;;;;26.22;48.74;94641.88;6131249;28;104250;-58
2022/08/23 12:14:35;;;;;;;8.80;8.20;;;;;;;26.22;48.73;94646.47;6139899;28;103237;-54
2022/08/23 12:18:12;;;;;;;8.40;7.70;;;;;;;26.22;49.02;94641.88;6139612;28;103186;-54
2022/08/23 12:21:22;;;;;;;8.27;7.60;;;;;;;26.21;48.53;94632.28;6140087;28;102993;-54
2022/08/23 12:24:31;;;;;;;8.00;7.40;;;;;;;26.21;48.28;94637.63;6133908;28;104182;-55
2022/08/23 12:27:39;;;;;;;8.70;7.83;;;;;;;26.21;48.80;94632.28;6139624;28;103953;-55
2022/08/23 12:30:53;;;;;;;8.53;7.83;;;;;;;26.22;48.24;94625.78;6140370;28;102906;-54
2022/08/23 12:34:12;;;;;;;8.40;7.70;;;;;;;26.22;48.36;94628.47;6129110;28;104011;-55
2022/08/23 12:37:28;;;;;;;8.30;7.60;;;;;;;26.24;48.78;94630.81;6140147;28;104142;-54
2022/08/23 12:40:35;;;;;;;8.23;7.50;;;;;;;26.24;48.86;94626.22;6140036;28;103070;-54
2022/08/23 12:43:55;;;;;;;9.07;8.37;;;;;;;26.25;48.55;94624.31;6139645;28;104489;-54
2022/08/23 12:47:11;;;;;;;7.80;7.20;;;;;;;26.22;48.77;94617.75;6128722;28;104011;-54
2022/08/23 12:50:24;;;;;;;8.37;7.77;;;;;;;26.23;48.36;94619.28;6139756;28;104125;-54
2022/08/23 12:53:38;;;;;;;8.00;7.30;;;;;;;26.23;48.69;94619.28;6140062;28;103973;-54
2022/08/23 12:56:49;;;;;;;8.40;7.70;;;;;;;26.25;48.92;94618.94;6129143;28;104293;-53
2022/08/23 13:00:01;;;;;;;7.93;7.33;;;;;;;26.24;48.45;94615.50;6139825;28;103417;-53
2022/08/23 13:03:24;;;;;;;8.20;7.50;;;;;;;26.23;48.63;94619.28;6139499;28;103632;-54
2022/08/23 13:06:34;;;;;;;8.57;7.97;;;;;;;26.25;48.52;94616.25;6139534;28;103242;-55
2022/08/23 13:09:43;;;;;;;8.13;7.50;;;;;;;26.25;48.96;94609.00;6129459;28;103147;-54
2022/08/23 13:12:55;;;;;;;8.27;7.63;;;;;;;26.21;48.58;94602.75;6138727;28;103400;-54
2022/08/23 13:16:00;;;;;;;7.90;7.27;;;;;;;26.22;48.95;94596.28;6138899;28;103406;-75
2022/08/23 13:19:16;;;;;;;8.93;8.17;;;;;;;26.21;49.06;94605.44;6129805;28;102968;-55
2022/08/23 13:22:23;;;;;;;7.93;7.23;;;;;;;26.21;48.63;94607.31;6139104;28;102845;-53
2022/08/23 13:25:30;;;;;;;7.60;7.00;;;;;;;26.20;48.94;94593.13;6139355;28;103569;-54
2022/08/23 13:31:58;;;;;;;8.27;7.57;;;;;;;26.19;48.85;94591.56;6692035;22;105258;-58
2022/08/23 13:35:31;;;;;;;7.77;7.17;;;;;;;26.18;49.21;94586.56;6114206;28;103578;-57
2022/08/23 13:38:36;;;;;;;8.27;7.60;;;;;;;26.20;48.40;94593.13;6113967;28;103075;-57
2022/08/23 13:41:43;;;;;;;9.17;8.30;;;;;;;26.18;48.97;94590.00;6105261;28;105340;-59
2022/08/23 13:44:46;;;;;;;10.03;9.13;;;;;;;26.16;49.27;94578.06;6114767;28;103090;-58
2022/08/23 13:47:54;;;;;;;8.93;8.07;;;;;;;26.26;49.94;94591.78;6113979;28;103429;-57
2022/08/23 13:51:19;;;;;;;9.50;8.47;;;;;;;26.27;50.54;94587.97;6114403;28;103978;-58
2022/08/23 13:54:22;;;;;;;9.33;8.53;;;;;;;26.24;49.71;94588.66;6104461;28;104196;-58
2022/08/23 13:57:27;;;;;;;10.20;9.20;;;;;;;26.22;50.06;94590.13;6113869;28;103206;-58
2022/08/23 14:00:32;;;;;;;8.73;7.90;;;;;;;26.20;50.08;94593.13;6114417;28;104336;-58
2022/08/23 14:03:35;;;;;;;9.53;8.63;;;;;;;26.19;49.97;94601.53;6109163;28;103005;-57
2022/08/23 14:06:38;;;;;;;9.80;8.90;;;;;;;26.17;49.93;94604.56;6108252;28;103066;-57
2022/08/23 14:09:42;;;;;;;9.50;8.70;;;;;;;26.17;50.28;94617.97;6114019;28;103203;-58
2022/08/23 14:12:48;;;;;;;9.43;8.63;;;;;;;26.17;49.63;94646.69;6114002;28;104409;-58
2022/08/23 14:15:51;;;;;;;9.00;8.20;;;;;;;26.14;49.68;94645.47;6102812;28;103099;-58
2022/08/23 14:19:14;;;;;;;10.03;9.20;;;;;;;26.14;50.27;94656.19;6113248;28;102879;-58
2022/08/23 14:22:37;;;;;;;9.10;8.40;;;;;;;26.14;50.42;94653.53;6119986;28;105381;-58
2022/08/23 14:25:40;;;;;;;8.97;8.27;;;;;;;26.15;50.10;94668.50;6137182;28;103751;-58
2022/08/23 14:28:46;;;;;;;8.43;7.63;;;;;;;26.11;49.73;94669.50;6127027;28;103569;-60
2022/08/23 14:31:57;;;;;;;7.97;7.30;;;;;;;26.07;49.80;94664.06;6139564;28;102967;-59
2022/08/23 14:35:00;;;;;;;8.50;7.70;;;;;;;26.04;49.58;94672.75;6162563;28;103312;-60
2022/08/23 14:38:03;;;;;;;8.00;7.30;;;;;;;26.04;49.89;94664.72;6156638;28;104000;-60
2022/08/23 14:41:19;;;;;;;9.67;7.50;;;;;;;26.04;49.36;94670.06;6159750;28;103529;-60
2022/08/23 14:44:24;;;;;;;7.30;6.70;;;;;;;26.07;49.92;94669.44;6166540;28;104230;-59
2022/08/23 14:47:35;;;;;;;9.83;7.93;;;;;;;26.08;49.95;94668.31;6165290;28;103049;-60
2022/08/23 14:50:39;;;;;;;7.60;6.93;;;;;;;26.11;49.59;94674.88;6156098;28;104027;-59
2022/08/23 14:53:43;;;;;;;8.87;8.13;;;;;;;26.11;50.10;94688.28;6165244;28;102941;-59
2022/08/23 14:56:46;;;;;;;7.80;7.00;;;;;;;25.97;49.48;94702.03;6165166;28;103108;-62
2022/08/23 14:59:51;;;;;;;5.93;5.33;;;;;;;25.79;49.52;94693.47;6165792;28;104300;-59
2022/08/23 15:02:54;;;;;;;6.00;5.50;;;;;;;25.84;49.07;94700.50;6155794;28;103109;-60
2022/08/23 15:05:57;;;;;;;7.80;7.10;;;;;;;26.00;50.07;94690.66;6165796;28;103243;-60
2022/08/23 15:09:01;;;;;;;8.30;7.60;;;;;;;26.02;49.73;94679.59;6165773;28;104253;-59
2022/08/23 15:12:04;;;;;;;10.10;9.20;;;;;;;26.03;50.26;94676.56;6160533;28;103990;-59
2022/08/23 15:15:29;;;;;;;8.27;7.57;;;;;;;26.04;49.91;94670.06;6165158;28;102821;-60
2022/08/23 15:18:33;;;;;;;15.53;14.43;;;;;;;26.09;50.53;94666.41;6164666;28;103396;-60
2022/08/23 15:21:36;;;;;;;17.77;16.67;;;;;;;26.09;51.00;94667.19;6164964;28;103237;-60
2022/08/23 15:24:39;;;;;;;22.73;21.33;;;;;;;26.09;51.24;94675.22;6153863;28;102971;-61
2022/08/23 15:27:44;;;;;;;31.43;29.73;;;;;;;26.12;53.01;94671.84;6164761;28;103213;-60
2022/08/23 15:30:50;;;;;;;30.93;28.73;;;;;;;26.18;53.13;94675.84;6144521;28;103158;-59
2022/08/23 15:33:53;;;;;;;30.30;28.30;;;;;;;26.19;54.46;94671.25;6117974;28;104070;-59
2022/08/23 15:36:56;;;;;;;28.83;26.90;;;;;;;26.23;54.96;94683.69;6105514;28;104471;-59
2022/08/23 15:40:00;;;;;;;11.70;10.80;;;;;;;26.09;51.91;94677.13;6115677;28;103218;-60
2022/08/23 15:43:03;;;;;;;18.77;17.27;;;;;;;25.87;52.24;94681.03;6116144;28;103122;-60
2022/08/23 15:46:10;;;;;;;8.80;8.00;;;;;;;25.47;53.34;94689.81;6111027;28;104152;-59
2022/08/23 15:49:15;;;;;;;10.70;7.30;;;;;;;25.26;53.24;94702.50;6111497;28;105449;-58
2022/08/23 15:52:20;;;;;;;7.93;7.33;;;;;;;25.08;53.00;94726.81;6116627;28;104146;-59
2022/08/23 15:55:24;;;;;;;8.73;6.90;;;;;;;25.32;52.45;94723.38;6127682;28;103142;-62
2022/08/23 15:58:28;;;;;;;7.30;6.70;;;;;;;25.46;51.64;94723.09;6128231;28;103320;-59
2022/08/23 16:01:34;;;;;;;9.23;8.40;;;;;;;25.54;51.74;94726.75;6139862;28;104162;-59
2022/08/23 16:04:37;;;;;;;8.60;7.90;;;;;;;25.49;52.27;94733.13;6139803;28;102877;-59
2022/08/23 16:07:41;;;;;;;8.97;8.17;;;;;;;25.56;52.65;94745.97;6138805;28;103127;-58
2022/08/23 16:10:44;;;;;;;9.10;8.30;;;;;;;25.62;52.78;94731.22;6127885;28;103276;-58
2022/08/23 16:13:50;;;;;;;8.37;7.57;;;;;;;25.64;53.20;94723.63;6134255;28;104764;-59
2022/08/23 16:16:58;;;;;;;8.83;8.00;;;;;;;25.68;52.90;94724.53;6138250;28;103269;-61
2022/08/23 16:20:04;;;;;;;8.07;7.47;;;;;;;25.67;53.07;94714.91;6137965;28;103582;-55
2022/08/23 16:23:07;;;;;;;8.67;7.93;;;;;;;25.70;52.51;94722.28;6131793;28;103903;-58
2022/08/23 16:26:13;;;;;;;7.33;6.73;;;;;;;25.72;52.58;94713.94;6139486;28;106894;-56
2022/08/23 16:29:20;;;;;;;8.00;7.30;;;;;;;25.73;52.23;94705.56;6137403;28;103374;-58
2022/08/23 16:32:25;;;;;;;10.90;8.27;;;;;;;25.72;52.44;94706.66;6105140;28;104073;-58
2022/08/23 16:35:28;;;;;;;7.93;7.03;;;;;;;25.73;52.65;94702.88;6132112;28;104386;-61
2022/08/23 16:38:31;;;;;;;6.83;6.33;;;;;;;25.73;52.20;94715.50;6137193;28;103123;-57
2022/08/23 16:41:34;;;;;;;8.40;7.70;;;;;;;25.75;52.53;94715.94;6138057;28;102841;-59
2022/08/23 16:44:37;;;;;;;7.73;7.03;;;;;;;25.74;52.48;94735.81;6129957;28;104348;-58
2022/08/23 16:47:44;;;;;;;8.30;7.37;;;;;;;25.75;52.74;94726.66;6139138;28;104410;-61
2022/08/23 16:50:47;;;;;;;8.50;7.67;;;;;;;25.79;53.62;94716.81;6139321;28;104192;-59
2022/08/23 16:53:50;;;;;;;7.77;7.07;;;;;;;25.67;54.09;94720.28;6131760;28;103058;-60
2022/08/23 16:57:05;;;;;;;9.73;8.87;;;;;;;25.51;54.98;94724.75;6128590;28;103156;-60
2022/08/23 17:00:11;;;;;;;8.87;8.17;;;;;;;24.89;55.93;94728.47;6138350;28;103366;-60